Gulf Breeze High School FL US WEATHERSTEM current weather conditions

sailwx.info

Wind from 296 at 1 knots gusting 1

Air temperature 7.4° C
Dewpoint 1.5° C

Last reported at 2020-Jan-25 13:40 UTC.
Time now 2020-Jan-25 14:33 UTC

Location: N 30°22' W 087°10'.
View on Google Maps.

See reports from other nearby stations

  
Tides and Currents Weather Stations Pressure Air Temp Water Temp Dewpoint Dewpoint Depression Visibility Wind Speed Wind Dir Waves Ship Positions
date/time (UTC)wind fromknots sea level pressurealtimeterstation pressurevisibilityair tempwater tempwave heightnotes
2020-Jan-25 13:40 296 1 gusting 1 7.4
2020-Jan-25 13:30 300 1 gusting 1 7.2
2020-Jan-25 13:20 300 0 gusting 0 7.0
2020-Jan-25 13:10 300 1 gusting 1 6.9
2020-Jan-25 13:00 300 0 gusting 0 6.9
2020-Jan-25 12:50 300 1 gusting 1 6.9
2020-Jan-25 12:40 288 2 gusting 2 7.0
2020-Jan-25 12:30 293 2 gusting 2 7.1
2020-Jan-25 12:20 306 3 gusting 4 7.2
2020-Jan-25 12:10 321 4 gusting 4 7.2
2020-Jan-25 12:00 328 2 gusting 2 7.2
2020-Jan-25 11:50 313 3 gusting 3 7.2
2020-Jan-25 11:40 313 3 gusting 4 7.2
2020-Jan-25 11:30 311 3 gusting 3 7.3
2020-Jan-25 11:20 317 2 gusting 2 7.3
2020-Jan-25 11:10 320 3 gusting 4 7.4
2020-Jan-25 11:00 306 6 gusting 6 7.4
2020-Jan-25 10:50 263 6 gusting 6 7.5
2020-Jan-25 10:40 319 2 gusting 3 7.6
2020-Jan-25 10:30 297 6 gusting 6 7.7
2020-Jan-25 10:20 298 6 gusting 6 7.8
2020-Jan-25 10:10 300 3 gusting 3 7.9
2020-Jan-25 09:50 327 9 gusting 9 8.1
2020-Jan-25 09:40 302 8 gusting 8 8.1
2020-Jan-25 09:30 315 5 gusting 6 8.1
2020-Jan-25 09:20 283 6 gusting 6 8.1
2020-Jan-25 09:10 336 10 gusting 10 8.2
2020-Jan-25 09:00 348 8 gusting 8 8.3
2020-Jan-25 08:50 328 10 gusting 11 8.3
2020-Jan-25 08:40 313 7 gusting 7 8.4
2020-Jan-25 08:30 348 8 gusting 8 8.5
2020-Jan-25 08:20 313 9 gusting 9 8.7
2020-Jan-25 08:10 321 9 gusting 9 8.8
2020-Jan-25 08:00 309 8 gusting 9 9.0
2020-Jan-25 07:50 335 8 gusting 8 9.2
2020-Jan-25 07:40 319 6 gusting 6 9.3
2020-Jan-25 07:30 313 8 gusting 8 9.5
2020-Jan-25 07:20 319 9 gusting 9 9.7
2020-Jan-25 07:10 313 7 gusting 7 9.8
2020-Jan-25 07:00 324 6 gusting 6 10.1
2020-Jan-25 06:50 349 10 gusting 10 10.3
2020-Jan-25 06:40 324 6 gusting 6 10.5
2020-Jan-25 06:30 309 10 gusting 10 10.6
2020-Jan-25 06:20 289 8 gusting 8 10.7
2020-Jan-25 06:10 299 6 gusting 6 10.8
2020-Jan-25 06:00 270 7 gusting 7 10.9
2020-Jan-25 05:50 314 6 gusting 7 11.1
2020-Jan-25 05:40 261 5 gusting 5 11.2
2020-Jan-25 05:30 288 4 gusting 6 11.2
2020-Jan-25 05:20 278 2 gusting 2 11.3
2020-Jan-25 05:10 284 5 gusting 5 11.4
2020-Jan-25 05:00 255 6 gusting 6 11.4
2020-Jan-25 04:50 273 6 gusting 6 11.6
2020-Jan-25 04:40 259 6 gusting 6 11.7
2020-Jan-25 04:30 244 6 gusting 6 11.7
2020-Jan-25 04:20 246 6 gusting 6 11.8
2020-Jan-25 04:10 263 2 gusting 2 11.9
2020-Jan-25 04:00 269 2 gusting 2 12.1
2020-Jan-25 03:50 274 3 gusting 3 12.1
2020-Jan-25 03:40 290 6 gusting 7 12.2
2020-Jan-25 03:20 266 3 gusting 3 12.1
2020-Jan-25 03:10 271 2 gusting 2 12.2
2020-Jan-25 03:00 268 2 gusting 2 12.2
2020-Jan-25 02:50 267 2 gusting 2 12.2
2020-Jan-25 02:40 266 5 gusting 5 12.2
2020-Jan-25 02:30 245 4 gusting 4 12.4
2020-Jan-25 02:20 234 2 gusting 2 12.6
2020-Jan-25 02:10 233 5 gusting 5 12.7
2020-Jan-25 02:00 256 1 gusting 2 12.8
2020-Jan-25 01:50 221 8 gusting 8 12.8
2020-Jan-25 01:40 245 4 gusting 4 12.9
2020-Jan-25 01:30 250 4 gusting 4 13.0
2020-Jan-25 01:20 222 5 gusting 5 13.1
2020-Jan-25 01:10 237 3 gusting 4 13.1
2020-Jan-25 01:00 226 4 gusting 4 13.1
2020-Jan-25 00:50 246 2 gusting 2 13.2
2020-Jan-25 00:40 234 5 gusting 6 13.3
2020-Jan-25 00:30 240 2 gusting 2 13.4
2020-Jan-25 00:20 240 2 gusting 2 13.5
2020-Jan-25 00:10 241 4 gusting 4 13.6
2020-Jan-25 00:00 229 6 gusting 6 13.7
2020-Jan-24 23:50 261 2 gusting 2 13.8
2020-Jan-24 23:40 229 5 gusting 5 14.0
2020-Jan-24 23:30 227 6 gusting 6 14.2
2020-Jan-24 23:20 219 3 gusting 3 14.6
2020-Jan-24 23:10 216 6 gusting 6 14.9
2020-Jan-24 23:00 234 6 gusting 6 15.4
2020-Jan-24 22:50 219 4 gusting 4 16.3
2020-Jan-24 22:40 225 6 gusting 6 17.1
2020-Jan-24 22:30 220 6 gusting 6 17.8
2020-Jan-24 22:20 248 6 gusting 6 17.9
2020-Jan-24 22:10 249 4 gusting 4 18.1
2020-Jan-24 22:00 265 2 gusting 3 18.2
2020-Jan-24 21:50 248 2 gusting 3 18.2
2020-Jan-24 21:40 269 2 gusting 2 18.1
2020-Jan-24 21:30 283 3 gusting 3 18.3
2020-Jan-24 21:20 237 5 gusting 6 18.4
2020-Jan-24 21:10 259 5 gusting 5 18.4
2020-Jan-24 21:00 263 2 gusting 2 18.5
2020-Jan-24 20:50 287 6 gusting 6 18.4
2020-Jan-24 20:40 286 6 gusting 6 18.2
2020-Jan-24 20:30 265 6 gusting 6 18.1
2020-Jan-24 20:20 279 6 gusting 6 18.1
2020-Jan-24 20:10 286 9 gusting 9 18.2
2020-Jan-24 20:00 286 6 gusting 7 18.2
2020-Jan-24 19:50 286 5 gusting 6 18.3
2020-Jan-24 19:40 275 9 gusting 9 18.1
2020-Jan-24 19:30 297 6 gusting 6 17.8
2020-Jan-24 19:20 293 2 gusting 2 17.7
2020-Jan-24 19:10 286 6 gusting 6 17.4
2020-Jan-24 19:00 277 9 gusting 11 17.3
2020-Jan-24 18:50 295 6 gusting 6 17.5
2020-Jan-24 18:40 291 6 gusting 6 17.3
2020-Jan-24 18:30 275 7 gusting 8 17.2
2020-Jan-24 18:20 289 4 gusting 4 17.0
2020-Jan-24 18:00 255 4 gusting 4 16.6
2020-Jan-24 17:50 275 2 gusting 2 16.2
2020-Jan-24 17:40 269 7 gusting 7 16.0
2020-Jan-24 17:30 236 6 gusting 6 15.3
2020-Jan-24 17:20 274 6 gusting 6 14.7
2020-Jan-24 17:10 273 6 gusting 6 14.8
2020-Jan-24 17:00 261 8 gusting 8 14.9
2020-Jan-24 16:50 277 3 gusting 5 14.7
2020-Jan-24 16:40 267 3 gusting 3 14.6
2020-Jan-24 16:30 250 4 gusting 4 14.4
2020-Jan-24 16:20 289 2 gusting 2 14.2
2020-Jan-24 16:10 288 3 gusting 3 14.0
2020-Jan-24 16:00 304 6 gusting 6 13.9
2020-Jan-24 15:40 301 4 gusting 4 13.7
2020-Jan-24 15:30 281 6 gusting 6 13.7
2020-Jan-24 15:20 301 9 gusting 10 13.6
2020-Jan-24 15:10 286 7 gusting 8 13.5
2020-Jan-24 15:00 269 6 gusting 6 13.4
2020-Jan-24 14:50 291 3 gusting 3 13.3
2020-Jan-24 14:40 281 6 gusting 6 13.4
2020-Jan-24 14:30 278 5 gusting 5 13.4
2020-Jan-24 14:20 288 6 gusting 6 13.4
2020-Jan-24 14:10 279 6 gusting 6 13.4
2020-Jan-24 14:00 272 8 gusting 8 13.3
2020-Jan-24 13:50 291 9 gusting 9 13.4
2020-Jan-24 13:40 277 6 gusting 6 13.6
2020-Jan-24 13:30 284 6 gusting 6 13.8
2020-Jan-24 13:20 286 3 gusting 5 13.9
2020-Jan-24 13:10 284 0 gusting 0 13.9
2020-Jan-24 13:00 283 1 gusting 1 13.9
2020-Jan-24 12:50 282 2 gusting 2 14.0
2020-Jan-24 12:40 281 1 gusting 1 14.2
2020-Jan-24 12:30 289 2 gusting 2 14.3
2020-Jan-24 12:20 289 1 gusting 2 14.5
2020-Jan-24 12:10 279 2 gusting 2 14.6
2020-Jan-24 12:00 271 3 gusting 3 14.7
2020-Jan-24 11:50 262 5 gusting 5 14.9
2020-Jan-24 11:30 286 3 gusting 3 14.9
2020-Jan-24 11:20 257 4 gusting 4 14.8
2020-Jan-24 11:10 278 1 gusting 1 14.8
2020-Jan-24 11:00 279 2 gusting 2 14.9
2020-Jan-24 10:50 277 0 gusting 0 14.9
2020-Jan-24 10:40 270 0 gusting 0 15.1
2020-Jan-24 10:30 271 1 gusting 1 14.9
2020-Jan-24 10:20 267 1 gusting 1 14.8
2020-Jan-24 10:10 277 0 gusting 1 14.6
2020-Jan-24 10:00 295 1 gusting 1 14.2
2020-Jan-24 09:50 13.9
2020-Jan-24 09:40 13.8
2020-Jan-24 09:30 13.7
2020-Jan-24 09:20 13.7
2020-Jan-24 09:10 13.6
2020-Jan-24 09:00 13.7
2020-Jan-24 08:50 14.2
2020-Jan-24 08:40 14.4
2020-Jan-24 08:30 14.7
2020-Jan-24 08:20 14.8
2020-Jan-24 08:10 14.9
2020-Jan-24 07:50 297 0 gusting 0 15.1
2020-Jan-24 07:40 297 0 gusting 0 15.1
2020-Jan-24 07:20 297 1 gusting 1 15.1
2020-Jan-24 07:10 292 0 gusting 1 14.8
2020-Jan-24 07:00 329 4 gusting 4 14.7
2020-Jan-24 06:50 290 6 gusting 6 14.7
2020-Jan-24 06:40 14.7
2020-Jan-24 06:30 294 2 gusting 2 14.9
2020-Jan-24 06:20 15.1
2020-Jan-24 06:10 15.2
2020-Jan-24 06:00 15.3
2020-Jan-24 05:50 286 2 gusting 3 15.6
2020-Jan-24 05:40 288 0 gusting 1 15.9
2020-Jan-24 05:30 251 0 gusting 0 16.2
2020-Jan-24 05:20 251 0 gusting 1 16.6
2020-Jan-24 05:10 17.1
2020-Jan-24 05:00 251 1 gusting 1 17.6
2020-Jan-24 04:50 17.8
2020-Jan-24 04:40 158 1 gusting 1 17.8
2020-Jan-24 04:30 17.9
2020-Jan-24 04:20 155 0 gusting 1 17.9
2020-Jan-24 04:10 124 2 gusting 2 18.1
2020-Jan-24 04:00 113 3 gusting 3 18.2
2020-Jan-24 03:50 094 3 gusting 5 18.1
2020-Jan-24 03:40 115 3 gusting 6 17.9
2020-Jan-24 03:30 092 5 gusting 5 17.8
2020-Jan-24 03:20 088 3 gusting 3 17.7
2020-Jan-24 03:10 110 2 gusting 2 17.5
2020-Jan-24 03:00 079 3 gusting 3 17.4
2020-Jan-24 02:50 081 6 gusting 6 17.3
2020-Jan-24 02:40 074 6 gusting 6 17.2
2020-Jan-24 02:30 105 6 gusting 6 17.1
2020-Jan-24 02:20 077 0 gusting 2 16.8
2020-Jan-24 02:10 062 4 gusting 4 16.2
2020-Jan-24 02:00 054 2 gusting 2 14.9
2020-Jan-24 01:50 039 2 gusting 2 15.3
2020-Jan-24 01:40 061 1 gusting 2 15.1
2020-Jan-24 01:30 072 3 gusting 6 14.7
2020-Jan-24 01:20 053 4 gusting 4 14.7
2020-Jan-24 01:10 083 4 gusting 4 15.2
2020-Jan-24 01:00 049 4 gusting 4 15.2
2020-Jan-24 00:50 063 5 gusting 5 15.4
2020-Jan-24 00:40 074 3 gusting 5 15.3
2020-Jan-24 00:30 080 8 gusting 8 16.0
2020-Jan-24 00:20 122 6 gusting 6 16.1
2020-Jan-24 00:10 085 6 gusting 6 15.6
2020-Jan-24 00:00 309 0 gusting 1 13.8
2020-Jan-23 23:50 309 2 gusting 2 13.3
2020-Jan-23 23:40 312 1 gusting 2 12.9
2020-Jan-23 23:30 289 0 gusting 0 13.6
2020-Jan-23 23:20 14.8
2020-Jan-23 23:10 062 3 gusting 3 14.3
2020-Jan-23 23:00 034 6 gusting 7 13.9
2020-Jan-23 22:50 036 3 gusting 3 13.1
2020-Jan-23 22:40 040 8 gusting 8 12.7
2020-Jan-23 22:30 038 5 gusting 5 12.4
2020-Jan-23 22:20 025 6 gusting 6 12.3
2020-Jan-23 22:10 043 4 gusting 5 12.1
2020-Jan-23 22:00 024 2 gusting 3 12.1
2020-Jan-23 21:50 013 2 gusting 2 11.9
2020-Jan-23 21:40 334 3 gusting 3 11.8
2020-Jan-23 21:30 044 8 gusting 8 11.7
2020-Jan-23 21:20 019 6 gusting 6 11.7
2020-Jan-23 21:10 056 8 gusting 8 11.7
2020-Jan-23 21:00 005 5 gusting 5 11.7
2020-Jan-23 20:50 028 6 gusting 7 11.8
2020-Jan-23 20:40 073 6 gusting 6 11.8
2020-Jan-23 20:30 046 3 gusting 4 11.9
2020-Jan-23 20:20 061 7 gusting 7 11.9
2020-Jan-23 20:10 017 6 gusting 6 12.0
2020-Jan-23 20:00 066 6 gusting 7 12.0
2020-Jan-23 19:50 061 5 gusting 6 11.9
2020-Jan-23 19:40 119 7 gusting 9 12.2
2020-Jan-23 19:30 036 8 gusting 10 12.3
2020-Jan-23 19:20 062 3 gusting 4 12.3
2020-Jan-23 19:10 028 6 gusting 7 12.2
2020-Jan-23 19:00 040 9 gusting 9 12.2
2020-Jan-23 18:50 032 7 gusting 7 12.1
2020-Jan-23 18:40 043 9 gusting 11 12.0
2020-Jan-23 18:30 046 7 gusting 7 12.1
2020-Jan-23 18:20 065 4 gusting 5 11.9
2020-Jan-23 18:10 015 11 gusting 11 12.0
2020-Jan-23 18:00 024 6 gusting 6 12.2
2020-Jan-23 17:50 050 7 gusting 7 12.2
2020-Jan-23 17:40 034 13 gusting 13 12.3
2020-Jan-23 17:30 042 9 gusting 9 12.6
2020-Jan-23 17:20 026 12 gusting 12 12.3
2020-Jan-23 17:10 044 6 gusting 6 12.2
2020-Jan-23 17:00 025 6 gusting 6 12.1
2020-Jan-23 16:50 026 9 gusting 10 12.0
2020-Jan-23 16:40 044 9 gusting 10 11.6
2020-Jan-23 16:30 051 6 gusting 6 11.5
2020-Jan-23 16:20 046 8 gusting 8 11.6
2020-Jan-23 16:10 053 6 gusting 12 11.4
2020-Jan-23 16:00 041 7 gusting 7 11.5
2020-Jan-23 15:50 040 3 gusting 3 11.3
2020-Jan-23 15:40 053 7 gusting 7 11.0
2020-Jan-23 15:30 025 3 gusting 4 10.7
2020-Jan-23 15:20 360 6 gusting 7 10.5
2020-Jan-23 15:10 023 6 gusting 6 10.3
2020-Jan-23 15:00 031 5 gusting 6 10.2
2020-Jan-23 14:50 030 3 gusting 3 10.1
2020-Jan-23 14:40 030 4 gusting 4 10.1
2020-Jan-23 14:30 026 8 gusting 8 10.0
2020-Jan-23 14:20 013 8 gusting 8 10.0
2020-Jan-23 14:10 044 5 gusting 6 10.1
2020-Jan-23 14:00 024 7 gusting 7 10.2